GIA610 NTAA-SCIP
Flight info
| Callsign | GIA610 |
|---|---|
| Flight time | N/A |
| Altitude | 33000 |
| Route | PASTI4E PASTI DCT TATIA UL348 SELVU/N0488F350 UL348 VUGSU VUGSU2B |
| Aircraft | B77W/H-SDE1E2E3FGHIJ4J5M1RWXY/LB1D1 |
Departure
| Time | 2026-04-27 23:59 |
|---|---|
| Airport | Fa'a'ā International Airport (NTAA) |
Arrival
| Time | N/A |
|---|---|
| Airport | Mataveri International Airport (SCIP) |
| Time | Latitude | Longitude | Altitude | Speed | Heading |
|---|---|---|---|---|---|
| 2026-04-27 23:40 | -17.55811 | -149.60958 | 54 ft | 0 kts | 144° |
| 2026-04-27 23:49 | -17.55799 | -149.60967 | 25 ft | 2 kts | 149° |
| 2026-04-27 23:49 | -17.55784 | -149.60975 | 25 ft | 2 kts | 154° |
| 2026-04-27 23:49 | -17.55774 | -149.60980 | 25 ft | 2 kts | 161° |
| 2026-04-27 23:50 | -17.55758 | -149.60985 | 25 ft | 2 kts | 177° |
| 2026-04-27 23:50 | -17.55742 | -149.60983 | 32 ft | 2 kts | 202° |
| 2026-04-27 23:50 | -17.55728 | -149.60974 | 32 ft | 2 kts | 226° |
| 2026-04-27 23:50 | -17.55721 | -149.60965 | 32 ft | 1 kts | 234° |
| 2026-04-27 23:51 | -17.55720 | -149.60964 | 32 ft | 0 kts | 234° |
| 2026-04-27 23:52 | -17.55720 | -149.60965 | 32 ft | 1 kts | 234° |
| 2026-04-27 23:52 | -17.55731 | -149.60982 | 32 ft | 5 kts | 239° |
| 2026-04-27 23:53 | -17.55761 | -149.61025 | 32 ft | 9 kts | 238° |
| 2026-04-27 23:53 | -17.55752 | -149.61082 | 31 ft | 9 kts | 314° |
| 2026-04-27 23:53 | -17.55700 | -149.61120 | 29 ft | 9 kts | 324° |
| 2026-04-27 23:53 | -17.55685 | -149.61178 | 28 ft | 9 kts | 250° |
| 2026-04-27 23:54 | -17.55721 | -149.61233 | 29 ft | 9 kts | 233° |
| 2026-04-27 23:54 | -17.55758 | -149.61286 | 28 ft | 9 kts | 234° |
| 2026-04-27 23:54 | -17.55795 | -149.61340 | 25 ft | 9 kts | 234° |
| 2026-04-27 23:54 | -17.55833 | -149.61395 | 28 ft | 9 kts | 234° |
| 2026-04-27 23:55 | -17.55870 | -149.61449 | 27 ft | 9 kts | 234° |
| 2026-04-27 23:55 | -17.55907 | -149.61503 | 30 ft | 9 kts | 234° |
| 2026-04-27 23:55 | -17.55944 | -149.61557 | 30 ft | 9 kts | 234° |
| 2026-04-27 23:55 | -17.55981 | -149.61612 | 30 ft | 9 kts | 234° |
| 2026-04-27 23:56 | -17.56019 | -149.61667 | 30 ft | 9 kts | 234° |
| 2026-04-27 23:56 | -17.56056 | -149.61721 | 27 ft | 9 kts | 234° |
| 2026-04-27 23:56 | -17.56093 | -149.61776 | 27 ft | 9 kts | 234° |
| 2026-04-27 23:56 | -17.56131 | -149.61832 | 28 ft | 9 kts | 234° |
| 2026-04-27 23:57 | -17.56168 | -149.61886 | 27 ft | 9 kts | 233° |
| 2026-04-27 23:57 | -17.56203 | -149.61942 | 27 ft | 9 kts | 246° |
| 2026-04-27 23:57 | -17.56216 | -149.61996 | 27 ft | 5 kts | 255° |
| 2026-04-27 23:57 | -17.56242 | -149.62007 | 27 ft | 3 kts | 161° |
| 2026-04-27 23:58 | -17.56250 | -149.61994 | 27 ft | 2 kts | 105° |
| 2026-04-27 23:58 | -17.56243 | -149.61981 | 27 ft | 3 kts | 49° |
| 2026-04-27 23:58 | -17.56213 | -149.61946 | 27 ft | 10 kts | 49° |
| 2026-04-27 23:58 | -17.56170 | -149.61884 | 27 ft | 16 kts | 54° |
| 2026-04-27 23:59 | -17.56035 | -149.61687 | 26 ft | 62 kts | 54° |
| 2026-04-27 23:59 | -17.55637 | -149.61109 | 29 ft | 131 kts | 54° |
| 2026-04-27 23:59 | -17.54985 | -149.60178 | 52 ft | 179 kts | 53° |
| 2026-04-27 23:59 | -17.54266 | -149.59106 | 648 ft | 182 kts | 53° |
| 2026-04-28 00:00 | -17.53505 | -149.57999 | 1064 ft | 197 kts | 54° |
| 2026-04-28 00:00 | -17.52665 | -149.56812 | 1607 ft | 205 kts | 54° |
| 2026-04-28 00:00 | -17.51812 | -149.55597 | 2047 ft | 216 kts | 55° |
| 2026-04-28 00:00 | -17.50906 | -149.54260 | 2266 ft | 237 kts | 55° |
| 2026-04-28 00:01 | -17.49912 | -149.52804 | 2693 ft | 249 kts | 55° |
| 2026-04-28 00:01 | -17.48891 | -149.51308 | 3296 ft | 256 kts | 54° |
| 2026-04-28 00:01 | -17.47845 | -149.49780 | 4010 ft | 258 kts | 54° |
| 2026-04-28 00:01 | -17.46801 | -149.48256 | 4762 ft | 258 kts | 54° |
| 2026-04-28 00:02 | -17.45746 | -149.46719 | 5443 ft | 261 kts | 54° |
| 2026-04-28 00:02 | -17.44694 | -149.45187 | 6078 ft | 264 kts | 54° |
| 2026-04-28 00:02 | -17.43610 | -149.43609 | 6698 ft | 268 kts | 54° |
| 2026-04-28 00:02 | -17.42752 | -149.41895 | 7196 ft | 270 kts | 77° |
| 2026-04-28 00:03 | -17.42710 | -149.39924 | 7733 ft | 275 kts | 100° |
| 2026-04-28 00:03 | -17.43221 | -149.37993 | 8299 ft | 278 kts | 105° |
| 2026-04-28 00:03 | -17.43802 | -149.36049 | 8890 ft | 281 kts | 106° |
| 2026-04-28 00:03 | -17.44394 | -149.34088 | 9549 ft | 282 kts | 106° |
| 2026-04-28 00:04 | -17.44976 | -149.32150 | 10144 ft | 284 kts | 106° |
| 2026-04-28 00:04 | -17.46223 | -149.27939 | 10585 ft | 321 kts | 106° |
| 2026-04-28 00:04 | -17.46900 | -149.25630 | 10748 ft | 342 kts | 106° |
| 2026-04-28 00:05 | -17.47620 | -149.23179 | 10905 ft | 360 kts | 107° |
| 2026-04-28 00:05 | -17.48750 | -149.20840 | 11113 ft | 375 kts | 128° |
| 2026-04-28 00:05 | -17.50752 | -149.19029 | 11634 ft | 386 kts | 149° |
| 2026-04-28 00:05 | -17.53275 | -149.18021 | 12309 ft | 394 kts | 169° |
| 2026-04-28 00:06 | -17.56012 | -149.17807 | 12904 ft | 398 kts | 176° |
| 2026-04-28 00:06 | -17.58807 | -149.17701 | 13441 ft | 402 kts | 174° |
| 2026-04-28 00:06 | -17.61511 | -149.17020 | 13843 ft | 405 kts | 152° |
| 2026-04-28 00:06 | -17.63784 | -149.15296 | 14414 ft | 404 kts | 133° |
| 2026-04-28 00:07 | -17.65462 | -149.12945 | 15054 ft | 404 kts | 116° |
| 2026-04-28 00:07 | -17.66671 | -149.10282 | 15519 ft | 408 kts | 112° |
| 2026-04-28 00:07 | -17.67828 | -149.07536 | 16021 ft | 414 kts | 112° |
| 2026-04-28 00:07 | -17.68976 | -149.04756 | 16621 ft | 417 kts | 112° |
| 2026-04-28 00:08 | -17.70138 | -149.01945 | 17221 ft | 421 kts | 112° |
| 2026-04-28 00:08 | -17.71318 | -148.99115 | 17794 ft | 425 kts | 112° |
| 2026-04-28 00:08 | -17.72521 | -148.96254 | 18308 ft | 431 kts | 112° |
| 2026-04-28 00:08 | -17.73727 | -148.93408 | 18783 ft | 435 kts | 112° |
| 2026-04-28 00:09 | -17.74965 | -148.90500 | 19291 ft | 437 kts | 112° |
| 2026-04-28 00:09 | -17.76211 | -148.87579 | 19834 ft | 440 kts | 112° |
| 2026-04-28 00:09 | -17.77468 | -148.84635 | 20340 ft | 443 kts | 113° |
| 2026-04-28 00:09 | -17.78733 | -148.81674 | 20841 ft | 447 kts | 113° |
| 2026-04-28 00:10 | -17.80009 | -148.78687 | 21348 ft | 450 kts | 113° |
| 2026-04-28 00:10 | -17.81293 | -148.75678 | 21851 ft | 453 kts | 113° |
| 2026-04-28 00:10 | -17.82582 | -148.72654 | 22356 ft | 456 kts | 114° |
| 2026-04-28 00:10 | -17.83879 | -148.69610 | 22842 ft | 458 kts | 114° |
| 2026-04-28 00:11 | -17.85186 | -148.66542 | 23332 ft | 461 kts | 114° |
| 2026-04-28 00:11 | -17.86498 | -148.63458 | 23748 ft | 464 kts | 114° |
| 2026-04-28 00:11 | -17.87820 | -148.60349 | 24155 ft | 467 kts | 114° |
| 2026-04-28 00:11 | -17.89148 | -148.57227 | 24582 ft | 468 kts | 114° |
| 2026-04-28 00:12 | -17.90477 | -148.54098 | 25004 ft | 470 kts | 114° |
| 2026-04-28 00:12 | -17.91808 | -148.50963 | 25412 ft | 472 kts | 114° |
| 2026-04-28 00:12 | -17.93146 | -148.47810 | 25801 ft | 474 kts | 114° |
| 2026-04-28 00:12 | -17.94490 | -148.44641 | 26182 ft | 476 kts | 114° |
| 2026-04-28 00:13 | -17.95841 | -148.41456 | 26552 ft | 479 kts | 114° |
| 2026-04-28 00:13 | -17.97198 | -148.38252 | 26950 ft | 481 kts | 114° |
| 2026-04-28 00:13 | -17.98561 | -148.35033 | 27328 ft | 483 kts | 114° |
| 2026-04-28 00:13 | -17.99930 | -148.31800 | 27690 ft | 485 kts | 114° |
| 2026-04-28 00:14 | -18.01286 | -148.28595 | 28045 ft | 487 kts | 114° |
| 2026-04-28 00:14 | -18.02663 | -148.25338 | 28406 ft | 489 kts | 114° |
| 2026-04-28 00:14 | -18.04045 | -148.22066 | 28731 ft | 491 kts | 114° |
| 2026-04-28 00:14 | -18.05432 | -148.18782 | 29032 ft | 493 kts | 114° |
| 2026-04-28 00:15 | -18.06826 | -148.15480 | 29350 ft | 495 kts | 114° |
| 2026-04-28 00:15 | -18.08220 | -148.12176 | 29699 ft | 495 kts | 114° |
| 2026-04-28 00:15 | -18.09615 | -148.08867 | 30158 ft | 493 kts | 114° |
| 2026-04-28 00:15 | -18.11000 | -148.05580 | 30571 ft | 491 kts | 114° |
| 2026-04-28 00:16 | -18.12382 | -148.02298 | 30941 ft | 490 kts | 115° |
| 2026-04-28 00:16 | -18.13757 | -147.99031 | 31268 ft | 490 kts | 115° |
| 2026-04-28 00:16 | -18.15136 | -147.95753 | 31567 ft | 490 kts | 115° |
| 2026-04-28 00:16 | -18.16517 | -147.92470 | 31870 ft | 491 kts | 115° |
| 2026-04-28 00:17 | -18.17895 | -147.89190 | 32201 ft | 490 kts | 115° |
| 2026-04-28 00:17 | -18.19270 | -147.85915 | 32540 ft | 489 kts | 115° |
| 2026-04-28 00:17 | -18.20644 | -147.82642 | 32884 ft | 488 kts | 116° |
| 2026-04-28 00:18 | -18.23404 | -147.76062 | 33017 ft | 493 kts | 116° |
| 2026-04-28 00:18 | -18.26157 | -147.69485 | 33018 ft | 488 kts | 116° |
| 2026-04-28 00:19 | -18.28862 | -147.63005 | 33036 ft | 486 kts | 115° |
| 2026-04-28 00:19 | -18.31498 | -147.56458 | 33035 ft | 486 kts | 115° |
| 2026-04-28 00:20 | -18.34108 | -147.49878 | 33036 ft | 487 kts | 115° |
| 2026-04-28 00:20 | -18.36724 | -147.43295 | 33021 ft | 487 kts | 115° |
| 2026-04-28 00:21 | -18.39345 | -147.36716 | 33038 ft | 488 kts | 115° |
| 2026-04-28 00:21 | -18.41975 | -147.30116 | 33040 ft | 488 kts | 115° |
| 2026-04-28 00:22 | -18.44602 | -147.23516 | 33042 ft | 488 kts | 115° |
| 2026-04-28 00:22 | -18.47227 | -147.16912 | 33037 ft | 488 kts | 115° |
| 2026-04-28 00:23 | -18.49825 | -147.10367 | 33030 ft | 488 kts | 115° |
| 2026-04-28 00:23 | -18.52442 | -147.03767 | 33027 ft | 488 kts | 115° |
| 2026-04-28 00:24 | -18.55056 | -146.97166 | 33027 ft | 487 kts | 115° |
| 2026-04-28 00:24 | -18.57665 | -146.90570 | 33030 ft | 487 kts | 115° |
| 2026-04-28 00:25 | -18.60269 | -146.83979 | 33044 ft | 487 kts | 115° |
| 2026-04-28 00:25 | -18.62859 | -146.77416 | 33045 ft | 487 kts | 115° |
| 2026-04-28 00:26 | -18.65459 | -146.70818 | 33035 ft | 487 kts | 115° |
| 2026-04-28 00:26 | -18.68056 | -146.64223 | 33032 ft | 487 kts | 115° |
| 2026-04-28 00:27 | -18.70651 | -146.57624 | 33030 ft | 487 kts | 114° |
| 2026-04-28 00:27 | -18.73242 | -146.51025 | 33045 ft | 487 kts | 114° |
| 2026-04-28 00:28 | -18.75832 | -146.44423 | 33049 ft | 487 kts | 114° |
| 2026-04-28 00:28 | -18.78419 | -146.37821 | 33039 ft | 487 kts | 114° |
| 2026-04-28 00:29 | -18.81008 | -146.31204 | 33035 ft | 487 kts | 114° |
| 2026-04-28 00:29 | -18.83591 | -146.24595 | 33036 ft | 487 kts | 114° |
| 2026-04-28 00:30 | -18.86154 | -146.18032 | 33053 ft | 486 kts | 114° |
| 2026-04-28 00:30 | -18.88730 | -146.11424 | 33043 ft | 486 kts | 114° |
| 2026-04-28 00:31 | -18.91307 | -146.04807 | 33039 ft | 486 kts | 114° |
| 2026-04-28 00:31 | -18.93448 | -145.99303 | 33054 ft | 486 kts | 114° |
| 2026-04-28 00:32 | -18.96021 | -145.92681 | 33044 ft | 487 kts | 114° |
| 2026-04-28 00:32 | -18.98589 | -145.86064 | 33041 ft | 487 kts | 114° |
| 2026-04-28 00:33 | -19.01159 | -145.79434 | 33061 ft | 487 kts | 114° |
| 2026-04-28 00:33 | -19.03722 | -145.72814 | 33044 ft | 487 kts | 114° |
| 2026-04-28 00:34 | -19.06290 | -145.66173 | 33042 ft | 488 kts | 114° |
| 2026-04-28 00:34 | -19.08840 | -145.59569 | 33047 ft | 488 kts | 114° |
| 2026-04-28 00:35 | -19.11406 | -145.52916 | 33050 ft | 488 kts | 114° |
| 2026-04-28 00:35 | -19.13966 | -145.46272 | 33043 ft | 488 kts | 114° |
| 2026-04-28 00:36 | -19.16523 | -145.39625 | 33056 ft | 488 kts | 114° |
| 2026-04-28 00:36 | -19.19077 | -145.32979 | 33051 ft | 488 kts | 114° |
| 2026-04-28 00:37 | -19.21628 | -145.26332 | 33050 ft | 487 kts | 114° |
| 2026-04-28 00:37 | -19.24176 | -145.19683 | 33053 ft | 487 kts | 114° |
| 2026-04-28 00:38 | -19.26717 | -145.13046 | 33053 ft | 486 kts | 114° |
| 2026-04-28 00:38 | -19.29258 | -145.06399 | 33059 ft | 486 kts | 114° |
| 2026-04-28 00:39 | -19.31792 | -144.99764 | 33052 ft | 486 kts | 113° |
| 2026-04-28 00:39 | -19.34197 | -144.93082 | 33055 ft | 486 kts | 112° |
| 2026-04-28 00:40 | -19.36501 | -144.86402 | 33056 ft | 486 kts | 111° |
| 2026-04-28 00:40 | -19.38824 | -144.79677 | 33055 ft | 486 kts | 111° |
| 2026-04-28 00:41 | -19.41159 | -144.72964 | 33055 ft | 485 kts | 112° |
| 2026-04-28 00:41 | -19.43498 | -144.66260 | 33057 ft | 485 kts | 112° |
| 2026-04-28 00:42 | -19.45840 | -144.59537 | 33058 ft | 485 kts | 112° |
| 2026-04-28 00:42 | -19.48172 | -144.52832 | 33061 ft | 485 kts | 111° |
| 2026-04-28 00:43 | -19.50505 | -144.46115 | 33061 ft | 485 kts | 111° |
| 2026-04-28 00:43 | -19.52820 | -144.39440 | 33069 ft | 485 kts | 111° |
| 2026-04-28 00:44 | -19.55145 | -144.32727 | 33059 ft | 485 kts | 111° |
| 2026-04-28 00:44 | -19.57470 | -144.26005 | 33063 ft | 485 kts | 111° |
| 2026-04-28 00:45 | -19.59789 | -144.19291 | 33063 ft | 485 kts | 111° |
| 2026-04-28 00:45 | -19.62102 | -144.12584 | 33065 ft | 485 kts | 111° |
| 2026-04-28 00:46 | -19.64417 | -144.05861 | 33069 ft | 484 kts | 111° |
| 2026-04-28 00:46 | -19.66726 | -143.99149 | 33073 ft | 484 kts | 111° |
| 2026-04-28 00:47 | -19.69021 | -143.92470 | 33068 ft | 484 kts | 111° |
| 2026-04-28 00:47 | -19.71328 | -143.85745 | 33066 ft | 484 kts | 111° |
| 2026-04-28 00:48 | -19.73629 | -143.79028 | 33068 ft | 484 kts | 111° |
| 2026-04-28 00:48 | -19.75929 | -143.72303 | 33069 ft | 484 kts | 111° |
| 2026-04-28 00:49 | -19.78224 | -143.65585 | 33072 ft | 484 kts | 111° |
| 2026-04-28 00:49 | -19.80515 | -143.58869 | 33075 ft | 484 kts | 111° |
| 2026-04-28 00:50 | -19.82809 | -143.52137 | 33070 ft | 484 kts | 111° |
| 2026-04-28 00:50 | -19.85101 | -143.45402 | 33072 ft | 484 kts | 111° |
| 2026-04-28 00:51 | -19.87386 | -143.38674 | 33070 ft | 484 kts | 111° |
| 2026-04-28 00:51 | -19.89655 | -143.31984 | 33076 ft | 484 kts | 111° |
| 2026-04-28 00:52 | -19.91937 | -143.25248 | 33078 ft | 484 kts | 111° |
| 2026-04-28 00:52 | -19.94213 | -143.18520 | 33076 ft | 484 kts | 111° |
| 2026-04-28 00:53 | -19.96489 | -143.11784 | 33079 ft | 484 kts | 111° |
| 2026-04-28 00:53 | -19.98762 | -143.05050 | 33078 ft | 484 kts | 111° |
| 2026-04-28 00:54 | -20.01028 | -142.98321 | 33080 ft | 484 kts | 111° |
| 2026-04-28 00:54 | -20.03296 | -142.91581 | 33084 ft | 484 kts | 111° |
| 2026-04-28 00:54 | -20.04433 | -142.88197 | 33228 ft | 486 kts | 111° |
| 2026-04-28 00:55 | -20.05567 | -142.84821 | 33589 ft | 485 kts | 111° |
| 2026-04-28 00:55 | -20.06695 | -142.81457 | 34008 ft | 481 kts | 111° |
| 2026-04-28 00:55 | -20.07822 | -142.78096 | 34376 ft | 479 kts | 111° |
| 2026-04-28 00:55 | -20.08922 | -142.74812 | 34719 ft | 476 kts | 111° |
| 2026-04-28 00:56 | -20.10032 | -142.71497 | 34996 ft | 475 kts | 111° |
| 2026-04-28 00:56 | -20.12259 | -142.64844 | 35074 ft | 478 kts | 111° |
| 2026-04-28 00:57 | -20.14479 | -142.58198 | 35079 ft | 474 kts | 111° |
| 2026-04-28 00:57 | -20.16678 | -142.51605 | 35085 ft | 472 kts | 111° |
| 2026-04-28 00:58 | -20.18866 | -142.45035 | 35089 ft | 470 kts | 111° |
| 2026-04-28 00:58 | -20.21056 | -142.38454 | 35087 ft | 470 kts | 111° |
| 2026-04-28 00:59 | -20.23239 | -142.31883 | 35087 ft | 471 kts | 111° |
| 2026-04-28 00:59 | -20.25424 | -142.25295 | 35085 ft | 473 kts | 111° |
| 2026-04-28 01:00 | -20.27617 | -142.18678 | 35093 ft | 474 kts | 111° |
| 2026-04-28 01:00 | -20.29795 | -142.12092 | 35093 ft | 475 kts | 111° |
| 2026-04-28 01:01 | -20.31991 | -142.05444 | 35082 ft | 475 kts | 111° |
| 2026-04-28 01:01 | -20.34180 | -141.98806 | 35093 ft | 475 kts | 111° |
| 2026-04-28 01:02 | -20.36367 | -141.92167 | 35088 ft | 474 kts | 111° |
| 2026-04-28 01:02 | -20.38549 | -141.85533 | 35095 ft | 473 kts | 111° |
| 2026-04-28 01:03 | -20.40719 | -141.78925 | 35091 ft | 472 kts | 111° |
| 2026-04-28 01:03 | -20.42890 | -141.72306 | 35087 ft | 472 kts | 111° |
| 2026-04-28 01:04 | -20.45050 | -141.65710 | 35095 ft | 471 kts | 111° |
| 2026-04-28 01:04 | -20.47207 | -141.59116 | 35096 ft | 471 kts | 111° |
| 2026-04-28 01:05 | -20.49360 | -141.52521 | 35101 ft | 471 kts | 111° |
| 2026-04-28 01:05 | -20.51511 | -141.45925 | 35095 ft | 471 kts | 111° |
| 2026-04-28 01:06 | -20.53658 | -141.39333 | 35100 ft | 471 kts | 110° |
| 2026-04-28 01:06 | -20.55805 | -141.32729 | 35102 ft | 471 kts | 110° |
| 2026-04-28 01:07 | -20.57934 | -141.26173 | 35105 ft | 471 kts | 110° |
| 2026-04-28 01:07 | -20.60074 | -141.19571 | 35108 ft | 471 kts | 110° |
| 2026-04-28 01:08 | -20.62213 | -141.12966 | 35101 ft | 471 kts | 110° |
| 2026-04-28 01:08 | -20.64347 | -141.06364 | 35106 ft | 470 kts | 110° |
| 2026-04-28 01:09 | -20.66483 | -140.99746 | 35107 ft | 470 kts | 110° |
| 2026-04-28 01:09 | -20.68614 | -140.93136 | 35107 ft | 470 kts | 110° |
| 2026-04-28 01:10 | -20.70740 | -140.86530 | 35111 ft | 470 kts | 110° |
| 2026-04-28 01:10 | -20.72866 | -140.79916 | 35108 ft | 470 kts | 110° |
| 2026-04-28 01:11 | -20.74985 | -140.73313 | 35105 ft | 470 kts | 110° |
| 2026-04-28 01:11 | -20.77106 | -140.66692 | 35109 ft | 470 kts | 110° |
| 2026-04-28 01:12 | -20.79220 | -140.60087 | 35112 ft | 470 kts | 110° |
| 2026-04-28 01:12 | -20.81319 | -140.53517 | 35107 ft | 470 kts | 110° |
| 2026-04-28 01:13 | -20.83432 | -140.46894 | 35105 ft | 470 kts | 110° |
| 2026-04-28 01:13 | -20.86593 | -140.36967 | 35113 ft | 470 kts | 110° |
| 2026-04-28 01:14 | -20.88697 | -140.30346 | 35116 ft | 470 kts | 110° |
| 2026-04-28 01:14 | -20.90797 | -140.23729 | 35112 ft | 469 kts | 110° |
| 2026-04-28 01:15 | -20.92540 | -140.18230 | 35115 ft | 469 kts | 110° |
| 2026-04-28 01:15 | -20.94631 | -140.11622 | 35112 ft | 469 kts | 110° |
| 2026-04-28 01:16 | -20.96721 | -140.05006 | 35115 ft | 469 kts | 110° |
| 2026-04-28 01:16 | -20.98807 | -139.98392 | 35115 ft | 469 kts | 110° |
| 2026-04-28 01:17 | -21.00871 | -139.91769 | 35118 ft | 469 kts | 109° |
| 2026-04-28 01:17 | -21.02924 | -139.85144 | 35111 ft | 469 kts | 109° |
| 2026-04-28 01:18 | -21.04975 | -139.78521 | 35124 ft | 469 kts | 109° |
| 2026-04-28 01:18 | -21.07031 | -139.71876 | 35119 ft | 469 kts | 109° |
| 2026-04-28 01:19 | -21.09082 | -139.65240 | 35124 ft | 469 kts | 109° |
| 2026-04-28 01:19 | -21.11116 | -139.58652 | 35122 ft | 469 kts | 109° |
| 2026-04-28 01:20 | -21.13159 | -139.52022 | 35121 ft | 469 kts | 109° |
| 2026-04-28 01:20 | -21.15203 | -139.45378 | 35116 ft | 469 kts | 109° |
| 2026-04-28 01:21 | -21.17243 | -139.38739 | 35129 ft | 469 kts | 109° |
| 2026-04-28 01:21 | -21.19281 | -139.32094 | 35126 ft | 469 kts | 109° |
| 2026-04-28 01:22 | -21.21318 | -139.25444 | 35130 ft | 470 kts | 109° |
| 2026-04-28 01:22 | -21.23352 | -139.18791 | 35128 ft | 470 kts | 109° |
| 2026-04-28 01:23 | -21.25385 | -139.12132 | 35127 ft | 470 kts | 109° |
| 2026-04-28 01:23 | -21.27414 | -139.05475 | 35125 ft | 470 kts | 109° |
| 2026-04-28 01:24 | -21.29444 | -138.98805 | 35128 ft | 470 kts | 109° |
| 2026-04-28 01:24 | -21.31472 | -138.92134 | 35128 ft | 470 kts | 109° |
| 2026-04-28 01:25 | -21.33497 | -138.85458 | 35133 ft | 470 kts | 109° |
| 2026-04-28 01:25 | -21.35518 | -138.78787 | 35123 ft | 470 kts | 109° |
| 2026-04-28 01:26 | -21.37537 | -138.72108 | 35130 ft | 470 kts | 109° |
| 2026-04-28 01:26 | -21.39543 | -138.65468 | 35136 ft | 471 kts | 109° |
| 2026-04-28 01:27 | -21.41558 | -138.58784 | 35137 ft | 471 kts | 109° |
| 2026-04-28 01:27 | -21.43569 | -138.52102 | 35136 ft | 471 kts | 109° |
| 2026-04-28 01:28 | -21.45583 | -138.45400 | 35126 ft | 471 kts | 109° |
| 2026-04-28 01:28 | -21.47593 | -138.38702 | 35142 ft | 471 kts | 109° |
| 2026-04-28 01:29 | -21.49602 | -138.31997 | 35139 ft | 471 kts | 109° |
| 2026-04-28 01:29 | -21.51609 | -138.25283 | 35144 ft | 472 kts | 109° |
| 2026-04-28 01:30 | -21.53643 | -138.18474 | 35137 ft | 472 kts | 109° |
| 2026-04-28 01:30 | -21.55644 | -138.11760 | 35140 ft | 472 kts | 109° |
| 2026-04-28 01:31 | -21.57644 | -138.05040 | 35137 ft | 472 kts | 109° |
| 2026-04-28 01:31 | -21.59641 | -137.98319 | 35148 ft | 472 kts | 109° |
| 2026-04-28 01:32 | -21.61638 | -137.91589 | 35139 ft | 472 kts | 109° |
| 2026-04-28 01:32 | -21.63631 | -137.84857 | 35153 ft | 472 kts | 109° |
| 2026-04-28 01:33 | -21.65620 | -137.78133 | 35158 ft | 472 kts | 109° |
| 2026-04-28 01:33 | -21.67594 | -137.71446 | 35139 ft | 473 kts | 109° |
| 2026-04-28 01:34 | -21.69580 | -137.64708 | 35142 ft | 473 kts | 109° |
| 2026-04-28 01:34 | -21.71566 | -137.57958 | 35141 ft | 473 kts | 109° |
| 2026-04-28 01:35 | -21.73548 | -137.51210 | 35151 ft | 473 kts | 109° |
| 2026-04-28 01:35 | -21.75530 | -137.44452 | 35141 ft | 473 kts | 109° |
| 2026-04-28 01:36 | -21.77509 | -137.37693 | 35145 ft | 474 kts | 109° |
| 2026-04-28 01:36 | -21.79489 | -137.30920 | 35145 ft | 474 kts | 109° |
| 2026-04-28 01:37 | -21.81464 | -137.24149 | 35156 ft | 474 kts | 109° |
| 2026-04-28 01:37 | -21.83441 | -137.17365 | 35156 ft | 475 kts | 109° |
| 2026-04-28 01:38 | -21.85414 | -137.10579 | 35150 ft | 475 kts | 109° |
| 2026-04-28 01:38 | -21.87373 | -137.03832 | 35149 ft | 475 kts | 109° |
| 2026-04-28 01:39 | -21.89347 | -136.97023 | 35158 ft | 476 kts | 109° |
| 2026-04-28 01:39 | -21.91315 | -136.90221 | 35153 ft | 476 kts | 109° |
| 2026-04-28 01:40 | -21.93280 | -136.83418 | 35156 ft | 476 kts | 109° |
| 2026-04-28 01:40 | -21.95246 | -136.76600 | 35167 ft | 476 kts | 108° |
| 2026-04-28 01:41 | -21.97198 | -136.69819 | 35154 ft | 476 kts | 108° |
| 2026-04-28 01:41 | -21.99164 | -136.62979 | 35157 ft | 477 kts | 108° |
| 2026-04-28 01:42 | -22.01124 | -136.56149 | 35160 ft | 477 kts | 108° |
| 2026-04-28 01:42 | -22.03084 | -136.49305 | 35162 ft | 477 kts | 108° |
| 2026-04-28 01:43 | -22.05024 | -136.42518 | 35163 ft | 477 kts | 108° |
| 2026-04-28 01:43 | -22.06978 | -136.35672 | 35161 ft | 478 kts | 108° |
| 2026-04-28 01:44 | -22.08930 | -136.28826 | 35167 ft | 478 kts | 108° |
| 2026-04-28 01:44 | -22.10878 | -136.21973 | 35166 ft | 478 kts | 108° |
| 2026-04-28 01:45 | -22.12828 | -136.15105 | 35165 ft | 478 kts | 108° |
| 2026-04-28 01:45 | -22.14777 | -136.08231 | 35167 ft | 479 kts | 108° |
| 2026-04-28 01:46 | -22.16711 | -136.01394 | 35166 ft | 479 kts | 108° |
| 2026-04-28 01:46 | -22.18652 | -135.94520 | 35166 ft | 479 kts | 108° |
| 2026-04-28 01:47 | -22.20594 | -135.87630 | 35167 ft | 480 kts | 108° |
| 2026-04-28 01:47 | -22.22538 | -135.80729 | 35170 ft | 480 kts | 108° |
| 2026-04-28 01:48 | -22.24465 | -135.73869 | 35172 ft | 480 kts | 108° |
| 2026-04-28 01:48 | -22.26402 | -135.66961 | 35171 ft | 481 kts | 108° |
| 2026-04-28 01:49 | -22.28339 | -135.60041 | 35172 ft | 481 kts | 108° |
| 2026-04-28 01:49 | -22.30274 | -135.53117 | 35172 ft | 482 kts | 108° |
| 2026-04-28 01:50 | -22.32207 | -135.46187 | 35174 ft | 482 kts | 108° |
| 2026-04-28 01:50 | -22.34142 | -135.39240 | 35169 ft | 483 kts | 108° |
| 2026-04-28 01:51 | -22.36060 | -135.32336 | 35183 ft | 483 kts | 108° |
| 2026-04-28 01:51 | -22.37989 | -135.25383 | 35173 ft | 483 kts | 107° |
| 2026-04-28 01:52 | -22.39918 | -135.18418 | 35173 ft | 484 kts | 107° |
| 2026-04-28 01:52 | -22.41848 | -135.11434 | 35175 ft | 484 kts | 107° |
| 2026-04-28 01:53 | -22.43774 | -135.04455 | 35177 ft | 485 kts | 107° |
| 2026-04-28 01:53 | -22.45701 | -134.97466 | 35181 ft | 486 kts | 107° |
| 2026-04-28 01:54 | -22.47644 | -134.90470 | 35194 ft | 486 kts | 107° |
| 2026-04-28 01:54 | -22.49583 | -134.83494 | 35184 ft | 487 kts | 107° |
| 2026-04-28 01:55 | -22.51211 | -134.77621 | 35182 ft | 488 kts | 107° |
| 2026-04-28 01:55 | -22.53473 | -134.69439 | 35200 ft | 488 kts | 107° |
| 2026-04-28 01:56 | -22.55101 | -134.63532 | 35191 ft | 489 kts | 107° |
| 2026-04-28 01:56 | -22.57044 | -134.56477 | 35186 ft | 490 kts | 107° |
| 2026-04-28 01:57 | -22.58972 | -134.49460 | 35198 ft | 490 kts | 107° |
| 2026-04-28 01:57 | -22.60913 | -134.42384 | 35194 ft | 491 kts | 107° |
| 2026-04-28 01:58 | -22.62853 | -134.35299 | 35188 ft | 491 kts | 107° |
| 2026-04-28 01:58 | -22.64792 | -134.28203 | 35202 ft | 492 kts | 107° |
| 2026-04-28 01:59 | -22.66731 | -134.21095 | 35199 ft | 492 kts | 107° |
| 2026-04-28 01:59 | -22.68669 | -134.13978 | 35189 ft | 492 kts | 106° |
| 2026-04-28 02:00 | -22.70593 | -134.06897 | 35194 ft | 493 kts | 106° |
| 2026-04-28 02:00 | -22.72524 | -133.99777 | 35199 ft | 493 kts | 106° |
| 2026-04-28 02:01 | -22.74453 | -133.92647 | 35195 ft | 493 kts | 106° |
| 2026-04-28 02:01 | -22.76380 | -133.85516 | 35204 ft | 493 kts | 106° |
| 2026-04-28 02:02 | -22.78305 | -133.78378 | 35205 ft | 493 kts | 106° |
| 2026-04-28 02:02 | -22.80226 | -133.71238 | 35212 ft | 494 kts | 106° |
| 2026-04-28 02:03 | -22.82146 | -133.64093 | 35195 ft | 494 kts | 106° |
| 2026-04-28 02:03 | -22.84063 | -133.56940 | 35204 ft | 494 kts | 106° |
| 2026-04-28 02:04 | -22.85975 | -133.49795 | 35208 ft | 494 kts | 106° |
| 2026-04-28 02:04 | -22.87890 | -133.42623 | 35203 ft | 494 kts | 106° |
| 2026-04-28 02:05 | -22.89787 | -133.35503 | 35198 ft | 494 kts | 106° |
| 2026-04-28 02:05 | -22.91693 | -133.28341 | 35210 ft | 494 kts | 106° |
| 2026-04-28 02:06 | -22.93597 | -133.21168 | 35213 ft | 494 kts | 106° |
| 2026-04-28 02:06 | -22.95495 | -133.14004 | 35207 ft | 494 kts | 106° |
| 2026-04-28 02:07 | -22.97389 | -133.06843 | 35206 ft | 494 kts | 106° |
| 2026-04-28 02:07 | -22.99281 | -132.99674 | 35206 ft | 494 kts | 106° |
| 2026-04-28 02:08 | -23.01169 | -132.92504 | 35203 ft | 494 kts | 106° |
| 2026-04-28 02:08 | -23.03052 | -132.85341 | 35206 ft | 494 kts | 106° |
| 2026-04-28 02:09 | -23.04932 | -132.78172 | 35213 ft | 494 kts | 106° |
| 2026-04-28 02:09 | -23.06811 | -132.70995 | 35217 ft | 494 kts | 106° |
| 2026-04-28 02:10 | -23.08688 | -132.63814 | 35225 ft | 494 kts | 105° |
| 2026-04-28 02:10 | -23.10562 | -132.56625 | 35212 ft | 494 kts | 105° |
| 2026-04-28 02:11 | -23.12423 | -132.49473 | 35218 ft | 495 kts | 105° |
| 2026-04-28 02:11 | -23.14297 | -132.42258 | 35223 ft | 495 kts | 105° |
| 2026-04-28 02:12 | -23.16161 | -132.35064 | 35225 ft | 495 kts | 105° |
| 2026-04-28 02:12 | -23.18026 | -132.27858 | 35220 ft | 495 kts | 105° |
| 2026-04-28 02:13 | -23.19888 | -132.20642 | 35228 ft | 495 kts | 105° |
| 2026-04-28 02:13 | -23.21747 | -132.13428 | 35228 ft | 495 kts | 105° |
| 2026-04-28 02:14 | -23.23591 | -132.06254 | 35228 ft | 496 kts | 105° |
| 2026-04-28 02:14 | -23.25442 | -131.99039 | 35221 ft | 496 kts | 105° |
| 2026-04-28 02:15 | -23.28215 | -131.88201 | 35222 ft | 495 kts | 105° |
| 2026-04-28 02:16 | -23.30059 | -131.80975 | 35227 ft | 495 kts | 105° |
| 2026-04-28 02:16 | -23.31899 | -131.73750 | 35229 ft | 496 kts | 105° |
| 2026-04-28 02:17 | -23.33736 | -131.66526 | 35233 ft | 496 kts | 105° |
| 2026-04-28 02:17 | -23.35571 | -131.59292 | 35236 ft | 496 kts | 105° |
| 2026-04-28 02:18 | -23.37401 | -131.52060 | 35238 ft | 496 kts | 105° |
| 2026-04-28 02:18 | -23.39229 | -131.44822 | 35229 ft | 496 kts | 105° |
| 2026-04-28 02:19 | -23.41055 | -131.37578 | 35236 ft | 496 kts | 105° |
| 2026-04-28 02:19 | -23.42880 | -131.30324 | 35236 ft | 496 kts | 105° |
| 2026-04-28 02:20 | -23.44686 | -131.23124 | 35235 ft | 496 kts | 105° |
| 2026-04-28 02:20 | -23.46503 | -131.15873 | 35234 ft | 496 kts | 105° |
| 2026-04-28 02:21 | -23.48314 | -131.08624 | 35244 ft | 496 kts | 105° |
| 2026-04-28 02:21 | -23.50123 | -131.01373 | 35245 ft | 496 kts | 105° |
| 2026-04-28 02:22 | -23.51926 | -130.94129 | 35241 ft | 496 kts | 105° |
| 2026-04-28 02:22 | -23.53726 | -130.86877 | 35236 ft | 495 kts | 105° |
| 2026-04-28 02:23 | -23.55525 | -130.79621 | 35246 ft | 495 kts | 105° |
| 2026-04-28 02:23 | -23.56713 | -130.74816 | 35237 ft | 495 kts | 105° |
| 2026-04-28 02:24 | -23.57099 | -130.73254 | 35236 ft | 495 kts | 105° |